createdAt,value
2019-04-26T11:01:08.394Z,13.00
2019-04-26T11:03:40.093Z,26.85
2019-04-26T11:06:10.429Z,13.78
2019-04-26T11:08:41.520Z,12.70
2019-04-26T11:11:11.974Z,12.87
2019-04-26T11:13:42.402Z,13.97
2019-04-26T11:16:13.040Z,12.57
2019-04-26T11:18:44.208Z,15.50
2019-04-26T11:21:16.324Z,11.63
2019-04-26T11:23:47.003Z,13.17
2019-04-26T11:26:17.333Z,11.70
2019-04-26T11:28:51.413Z,12.50
2019-04-26T11:31:23.289Z,12.85
2019-04-26T11:34:04.444Z,12.90
2019-04-26T11:36:24.553Z,11.47
2019-04-26T11:38:55.312Z,12.40
2019-04-26T11:41:25.652Z,13.03
2019-04-26T11:43:57.049Z,13.30
2019-04-26T11:46:30.053Z,12.70
2019-04-26T11:49:03.200Z,14.33
2019-04-26T11:51:32.147Z,12.43
2019-04-26T11:54:02.447Z,12.20
2019-04-26T11:56:34.014Z,12.70
2019-04-26T11:59:04.379Z,12.00
2019-04-26T12:01:36.628Z,13.10
2019-04-26T12:04:31.445Z,12.10
2019-04-26T12:07:20.032Z,13.77
2019-04-26T12:09:53.776Z,14.20
2019-04-26T12:12:24.185Z,13.65
2019-04-26T12:14:54.820Z,11.23
2019-04-26T12:17:27.290Z,13.10
2019-04-26T12:20:01.378Z,13.23
2019-04-26T12:22:33.317Z,14.23
2019-04-26T12:25:07.119Z,13.50
2019-04-26T12:27:35.853Z,13.00
2019-04-26T12:30:07.249Z,13.03
2019-04-26T12:32:40.139Z,13.47
2019-04-26T12:35:11.151Z,14.00
2019-04-26T12:37:42.649Z,13.47
2019-04-26T12:40:13.268Z,13.10
2019-04-26T12:42:47.374Z,12.50
2019-04-26T12:45:34.808Z,12.73
2019-04-26T12:48:12.223Z,12.90
2019-04-26T12:50:40.377Z,12.57
2019-04-26T12:53:10.757Z,13.10
2019-04-26T12:55:41.073Z,21.60
2019-04-26T12:58:15.111Z,12.90
2019-04-26T13:00:53.783Z,12.23
2019-04-26T13:03:20.582Z,13.10
2019-04-26T13:05:55.111Z,13.30
2019-04-26T13:08:21.102Z,14.13
2019-04-26T13:11:20.438Z,12.80
2019-04-26T13:13:56.767Z,12.82
2019-04-26T13:16:45.010Z,13.20
2019-04-26T13:19:16.144Z,13.00
2019-04-26T13:22:12.543Z,12.57
2019-04-26T13:25:05.347Z,12.40
2019-04-26T13:28:06.796Z,12.53
2019-04-26T13:31:02.757Z,12.28
2019-04-26T13:34:02.827Z,12.07
2019-04-26T13:36:55.451Z,11.43
2019-04-26T13:39:55.119Z,11.30
2019-04-26T13:42:51.362Z,11.63
2019-04-26T13:45:58.673Z,12.23
2019-04-26T13:49:06.754Z,11.97
2019-04-26T13:52:04.293Z,11.57
2019-04-26T13:54:59.538Z,14.60
2019-04-26T13:57:56.482Z,12.33
2019-04-26T14:00:53.163Z,11.93
2019-04-26T14:03:49.942Z,11.67
2019-04-26T14:06:46.851Z,10.50
2019-04-26T14:09:45.714Z,11.17
2019-04-26T14:12:42.452Z,11.80
2019-04-26T14:15:39.433Z,11.87
2019-04-26T14:18:39.053Z,12.10
2019-04-26T14:21:34.486Z,12.05
2019-04-26T14:24:56.593Z,12.20
2019-04-26T14:27:55.112Z,12.10
2019-04-26T14:30:51.945Z,12.37
2019-04-26T14:33:47.518Z,26.97
2019-04-26T14:36:44.267Z,12.57
2019-04-26T14:39:49.985Z,13.70
2019-04-26T14:42:42.204Z,12.70
2019-04-26T14:45:39.881Z,12.33
2019-04-26T14:48:36.457Z,12.37
2019-04-26T14:51:32.042Z,13.13
2019-04-26T14:54:28.003Z,12.70
2019-04-26T14:57:31.045Z,13.30
2019-04-26T15:00:21.212Z,11.22
2019-04-26T15:03:31.431Z,11.83
2019-04-26T15:06:31.959Z,12.23
2019-04-26T15:09:33.275Z,11.70
2019-04-26T15:12:24.805Z,12.97
2019-04-26T15:15:21.590Z,14.50
2019-04-26T15:18:17.234Z,14.63
2019-04-26T15:21:13.082Z,16.67
2019-04-26T15:24:08.997Z,17.17
2019-04-26T15:27:05.756Z,19.50
2019-04-26T15:30:04.237Z,18.40
2019-04-26T15:33:03.037Z,19.10
2019-04-26T15:35:55.969Z,21.70
2019-04-26T15:38:52.912Z,21.63
2019-04-26T15:41:56.627Z,21.97
2019-04-26T15:45:05.249Z,17.97
2019-04-26T15:48:20.215Z,23.50
2019-04-26T15:51:15.205Z,21.57
2019-04-26T15:54:13.351Z,23.93
2019-04-26T15:57:08.890Z,22.70
2019-04-26T16:00:05.850Z,22.20
2019-04-26T16:03:03.831Z,20.17
2019-04-26T16:05:59.125Z,24.50
2019-04-26T16:08:55.503Z,20.07
2019-04-26T16:11:53.125Z,20.47
2019-04-26T16:14:48.950Z,21.00
2019-04-26T16:17:44.770Z,19.33
2019-04-26T16:20:44.373Z,25.53
2019-04-26T16:23:41.524Z,21.93
2019-04-26T16:26:34.962Z,21.57
2019-04-26T16:29:50.897Z,24.97
2019-04-26T16:32:54.360Z,23.43
2019-04-26T16:35:47.758Z,23.83
2019-04-26T16:38:48.488Z,25.80
2019-04-26T16:41:42.651Z,22.80
2019-04-26T16:44:44.742Z,24.20
2019-04-26T16:47:45.164Z,23.80
2019-04-26T16:50:43.958Z,27.27
2019-04-26T16:53:46.440Z,25.50
2019-04-26T16:56:28.461Z,24.37
2019-04-26T16:59:26.762Z,25.27
2019-04-26T17:02:26.408Z,28.00
2019-04-26T17:05:23.986Z,27.83
2019-04-26T17:08:18.965Z,34.17
2019-04-26T17:11:12.133Z,23.73
2019-04-26T17:14:10.307Z,27.20
2019-04-26T17:17:07.433Z,25.77
2019-04-26T17:20:02.643Z,27.95
2019-04-26T17:23:13.019Z,24.57
2019-04-26T17:26:29.152Z,28.43
2019-04-26T17:29:22.494Z,28.47
2019-04-26T17:32:21.043Z,30.40
2019-04-26T17:35:17.917Z,30.23
2019-04-26T17:38:13.601Z,32.03
2019-04-26T17:41:12.660Z,29.53
2019-04-26T17:44:10.651Z,32.67
2019-04-26T17:47:03.828Z,29.87
2019-04-26T17:50:04.486Z,28.70
2019-04-26T17:52:56.532Z,26.20
2019-04-26T17:55:54.819Z,29.30
2019-04-26T17:58:53.892Z,28.00
2019-04-26T18:01:51.993Z,32.53
2019-04-26T18:04:43.232Z,33.53
2019-04-26T18:07:43.603Z,23.00
2019-04-26T18:10:40.048Z,27.87
2019-04-26T18:13:34.321Z,26.33
2019-04-26T18:16:31.139Z,31.70
2019-04-26T18:19:38.664Z,31.37
2019-04-26T18:22:50.383Z,32.20
2019-04-26T18:25:46.470Z,38.67
2019-04-26T18:28:46.172Z,23.13
2019-04-26T18:31:38.992Z,27.30
2019-04-26T18:34:40.302Z,28.97
2019-04-26T18:37:31.052Z,25.30
2019-04-26T18:40:27.066Z,30.93
2019-04-26T18:43:24.426Z,34.83
2019-04-26T18:46:26.890Z,22.83
2019-04-26T18:49:26.636Z,28.25
2019-04-26T18:52:24.925Z,35.23
2019-04-26T18:55:21.487Z,31.70
2019-04-26T18:58:17.332Z,30.87
2019-04-26T19:01:13.561Z,32.53
2019-04-26T19:04:13.553Z,24.30
2019-04-26T19:07:07.373Z,28.80
2019-04-26T19:10:05.355Z,31.10
2019-04-26T19:13:03.799Z,29.83
2019-04-26T19:16:10.492Z,30.08
2019-04-26T19:19:15.345Z,25.47
2019-04-26T19:22:15.430Z,26.90
2019-04-26T19:25:19.047Z,33.27
2019-04-26T19:28:07.994Z,29.50
2019-04-26T19:30:59.585Z,30.20
2019-04-26T19:33:56.290Z,29.00
2019-04-26T19:36:52.518Z,28.10
2019-04-26T19:39:49.016Z,35.10
2019-04-26T19:42:44.813Z,29.03
2019-04-26T19:45:55.476Z,31.13
2019-04-26T19:49:21.639Z,31.83
2019-04-26T19:52:23.333Z,33.05
2019-04-26T19:55:47.290Z,26.13
2019-04-26T19:58:42.218Z,36.33
2019-04-26T20:01:37.518Z,31.73
2019-04-26T20:04:34.718Z,31.10
2019-04-26T20:07:33.151Z,30.93
2019-04-26T20:10:26.977Z,36.93
2019-04-26T20:13:22.922Z,30.87
2019-04-26T20:16:19.668Z,26.10
2019-04-26T20:19:18.055Z,37.80
2019-04-26T20:22:13.403Z,33.53
2019-04-26T20:28:00.046Z,22.27
2019-04-26T20:31:16.092Z,31.23
2019-04-26T20:34:14.392Z,25.33
2019-04-26T20:37:09.474Z,32.83
2019-04-26T20:40:18.571Z,32.60
2019-04-26T20:43:06.803Z,37.93
2019-04-26T20:46:12.441Z,31.75
2019-04-26T20:48:56.460Z,29.77
2019-04-26T20:51:53.088Z,33.03
2019-04-26T20:54:51.146Z,28.33
2019-04-26T20:57:45.045Z,38.23
2019-04-26T21:00:53.732Z,31.97
2019-04-26T21:03:41.925Z,35.23
2019-04-26T21:06:36.924Z,29.47
2019-04-26T21:09:29.664Z,31.03
2019-04-26T21:12:26.504Z,27.03
2019-04-26T21:15:24.218Z,28.17
2019-04-26T21:18:18.660Z,34.27
2019-04-26T21:21:16.246Z,35.93
2019-04-26T21:24:13.410Z,29.10
2019-04-26T21:27:25.664Z,37.80
2019-04-26T21:30:34.624Z,35.63
2019-04-26T21:33:40.074Z,35.92
2019-04-26T21:36:53.259Z,29.70
2019-04-26T21:39:57.132Z,34.87
2019-04-26T21:42:59.274Z,32.63
2019-04-26T21:45:50.942Z,28.93
2019-04-26T21:48:47.783Z,37.87
2019-04-26T21:51:44.664Z,30.30
2019-04-26T21:54:40.233Z,27.13
2019-04-26T21:57:36.803Z,32.40
2019-04-26T22:00:44.515Z,35.30
2019-04-26T22:03:47.398Z,24.93
2019-04-26T22:06:36.910Z,33.73
2019-04-26T22:09:56.879Z,29.03
2019-04-26T22:12:53.941Z,37.83
2019-04-26T22:16:00.204Z,29.70
2019-04-26T22:19:21.558Z,29.33
2019-04-26T22:22:30.055Z,28.93
2019-04-26T22:25:26.790Z,32.00
2019-04-26T22:28:25.364Z,32.93
2019-04-26T22:31:20.169Z,35.23
2019-04-26T22:34:16.708Z,30.43
2019-04-26T22:37:16.040Z,38.63
2019-04-26T22:40:10.583Z,30.43
2019-04-26T22:43:16.404Z,28.23
2019-04-26T22:46:29.913Z,28.43
2019-04-26T22:49:23.290Z,31.23
2019-04-26T22:52:18.542Z,29.20
2019-04-26T22:55:24.629Z,31.80
2019-04-26T22:58:13.417Z,31.53
2019-04-26T23:01:09.599Z,34.70
2019-04-26T23:04:04.524Z,32.33
2019-04-26T23:07:03.306Z,32.17
2019-04-26T23:09:57.705Z,29.33
2019-04-26T23:13:14.123Z,32.93
2019-04-26T23:16:27.246Z,30.00
2019-04-26T23:19:33.509Z,32.20
2019-04-26T23:22:31.259Z,29.03
2019-04-26T23:25:27.709Z,29.43
2019-04-26T23:28:22.177Z,27.33
2019-04-26T23:31:19.078Z,34.67
2019-04-26T23:34:14.573Z,28.83
2019-04-26T23:37:10.117Z,32.70
2019-04-26T23:40:06.751Z,32.83
2019-04-26T23:43:03.227Z,32.90
2019-04-26T23:46:00.085Z,27.60
2019-04-26T23:48:56.671Z,29.03
2019-04-26T23:51:53.451Z,30.83
2019-04-26T23:54:48.761Z,26.30
2019-04-26T23:57:45.328Z,26.10
